Data for 02/21/2005

Time Sea-Level Adjusted Pressure Absolute Pressure Temperature Relative Humidity Dew Point   
(mb) (inHg) (mb) (inHg) (C) (F) (%) (C) (F)
00:05 1012 29.88 841 24.83 -2.1 28.2 94 -3 26.6
00:10 1012 29.88 842 24.86 -2 28.4 93 -3 26.7
00:15 1012 29.88 842 24.86 -2 28.5 93 -2.9 26.8
00:20 1013 29.91 842 24.86 -1.9 28.6 92 -3 26.6
00:25 1013 29.91 842 24.86 -1.9 28.6 91 -3.2 26.2
00:30 1013 29.91 842 24.86 -2 28.4 90 -3.4 25.9
00:35 1013 29.91 842 24.86 -2.1 28.2 90 -3.5 25.7
00:40 1013 29.91 842 24.86 -2.2 28 90 -3.7 25.3
00:45 1013 29.91 842 24.86 -2.2 28 90 -3.6 25.4
00:50 1013 29.91 842 24.86 -2.3 27.9 90 -3.7 25.3
00:55 1013 29.91 842 24.86 -2.3 27.8 91 -3.6 25.4
01:00 1013 29.91 842 24.86 -2.3 27.8 91 -3.6 25.6
01:05 1013 29.91 842 24.86 -2.3 27.8 92 -3.5 25.7
01:10 1013 29.91 842 24.86 -2.3 27.9 92 -3.4 25.9
01:15 1013 29.91 842 24.86 -2.3 27.9 93 -3.2 26.2
01:20 1013 29.91 842 24.86 -2.3 27.9 93 -3.2 26.2
01:25 1013 29.91 843 24.89 -2.4 27.7 94 -3.2 26.2
01:30 1013 29.91 842 24.86 -2.7 27.2 95 -3.4 25.9
01:35 1013 29.91 842 24.86 -2.6 27.4 94 -3.5 25.7
01:40 1013 29.91 842 24.86 -2.4 27.6 93 -3.5 25.8
01:45 1013 29.91 842 24.86 -2.3 27.9 92 -3.4 25.9
01:50 1013 29.91 843 24.89 -2.2 28.1 91 -3.4 25.8
01:55 1013 29.91 843 24.89 -2.1 28.2 91 -3.3 26
02:00 1013 29.91 843 24.89 -2 28.5 92 -3.1 26.5
02:05 1013 29.91 843 24.89 -1.7 28.9 92 -2.9 26.8
02:10 1013 29.91 843 24.89 -1.6 29.2 91 -2.8 26.9
02:15 1014 29.94 843 24.89 -1.6 29.2 92 -2.7 27.1
02:20 1014 29.94 843 24.89 -1.9 28.7 94 -2.7 27.1
02:25 1014 29.94 843 24.89 -1.9 28.5 94 -2.7 27.1
02:30 1014 29.94 843 24.89 -2 28.4 94 -2.8 27
02:35 1014 29.94 843 24.89 -2.1 28.2 95 -2.9 26.8
02:40 1014 29.94 843 24.89 -2.2 28 95 -2.9 26.8
02:45 1014 29.94 843 24.89 -2.2 28.1 95 -2.9 26.8
02:50 1014 29.94 843 24.89 -2.3 27.9 95 -3 26.7
02:55 1014 29.94 843 24.89 -2.2 28 96 -2.8 27
03:00 1014 29.94 843 24.89 -2 28.4 95 -2.6 27.2
03:05 1014 29.94 843 24.89 -2 28.4 96 -2.5 27.5
03:10 1014 29.94 843 24.89 -1.8 28.7 97 -2.3 27.9
03:15 1014 29.94 843 24.89 -1.8 28.8 97 -2.2 28.1
03:20 1014 29.94 843 24.89 -1.8 28.7 98 -2.1 28.2
03:25 1014 29.94 843 24.89 -1.8 28.8 98 -2.1 28.3
03:30 1014 29.94 843 24.89 -1.7 28.9 99 -1.9 28.6
03:35 1014 29.94 843 24.89 -1.5 29.3 99 -1.7 29
03:40 1014 29.94 843 24.89 -1.2 29.8 98 -1.5 29.4
03:45 1014 29.94 843 24.89 -1 30.2 97 -1.4 29.5
03:50 1014 29.94 843 24.89 -1 30.2 97 -1.4 29.4
03:55 1014 29.94 843 24.89 -1 30.1 97 -1.4 29.4
04:00 1014 29.94 843 24.89 -1 30.2 97 -1.4 29.5
04:05 1014 29.94 843 24.89 -1.1 30.1 98 -1.4 29.4
04:10 1014 29.94 843 24.89 -1.1 30.1 97 -1.5 29.3
04:15 1014 29.94 843 24.89 -1 30.2 96 -1.5 29.3
04:20 1014 29.94 843 24.89 -0.9 30.3 96 -1.5 29.4
04:25 1014 29.94 844 24.92 -0.9 30.4 95 -1.5 29.3
04:30 1014 29.94 844 24.92 -0.8 30.5 96 -1.4 29.4
04:35 1014 29.94 844 24.92 -0.9 30.4 96 -1.4 29.4
04:40 1014 29.94 844 24.92 -0.9 30.4 97 -1.4 29.6
04:45 1014 29.94 844 24.92 -1 30.1 96 -1.6 29.2
04:50 1014 29.94 844 24.92 -1.1 30 96 -1.7 29
04:55 1015 29.97 844 24.92 -1.2 29.8 96 -1.8 28.8
05:00 1015 29.97 844 24.92 -1.2 29.8 96 -1.8 28.8
05:05 1015 29.97 844 24.92 -1.3 29.7 96 -1.9 28.6
05:10 1015 29.97 844 24.92 -1.2 29.9 95 -1.9 28.6
05:15 1015 29.97 844 24.92 -1.1 29.9 94 -2 28.4
05:20 1015 29.97 844 24.92 -1 30.2 93 -2 28.4
05:25 1015 29.97 844 24.92 -0.8 30.5 93 -1.9 28.6
05:30 1015 29.97 844 24.92 -0.7 30.7 92 -1.9 28.5
05:35 1015 29.97 844 24.92 -0.6 30.9 91 -1.9 28.6
05:40 1015 29.97 844 24.92 -0.5 31 90 -2 28.5
05:45 1015 29.97 844 24.92 -0.5 31.1 89 -2.1 28.2
05:50 1015 29.97 844 24.92 -0.3 31.5 88 -2.1 28.3
05:55 1015 29.97 844 24.92 -0.2 31.6 89 -1.8 28.8
06:00 1015 29.97 844 24.92 -0.4 31.2 91 -1.7 29
06:05 1015 29.97 844 24.92 -0.6 30.8 93 -1.6 29.1
06:10 1015 29.97 844 24.92 -0.8 30.6 94 -1.7 29
06:15 1015 29.97 844 24.92 -0.9 30.3 95 -1.6 29
06:20 1015 29.97 844 24.92 -1 30.1 95 -1.7 29
06:25 1015 29.97 844 24.92 -1.1 30 96 -1.7 28.9
06:30 1015 29.97 844 24.92 -1.2 29.8 96 -1.8 28.8
06:35 1015 29.97 845 24.95 -1.4 29.6 96 -1.9 28.6
06:40 1015 29.97 845 24.95 -1.4 29.4 96 -2 28.5
06:45 1016 30 845 24.95 -1.6 29.2 96 -2.1 28.3
06:50 1016 30 845 24.95 -1.5 29.2 96 -2.1 28.2
06:55 1016 30 845 24.95 -1.6 29.1 96 -2.1 28.2
07:00 1016 30 845 24.95 -1.7 29 97 -2.1 28.2
07:05 1016 30 845 24.95 -1.8 28.8 97 -2.2 28
07:10 1016 30 845 24.95 -2 28.4 98 -2.3 27.8
07:15 1016 30 845 24.95 -2.2 28.1 98 -2.4 27.6
07:20 1016 30 845 24.95 -2.3 27.9 99 -2.5 27.6
07:25 1016 30 845 24.95 -2.3 27.9 99 -2.4 27.7
07:30 1016 30 845 24.95 -2.2 28 99 -2.4 27.8
07:35 1016 30 845 24.95 -2.3 27.9 99 -2.4 27.6
07:40 1016 30 845 24.95 -2.4 27.7 99 -2.5 27.4
07:45 1016 30 845 24.95 -2.5 27.5 99 -2.7 27.2
07:50 1016 30 845 24.95 -2.7 27.1 99 -2.8 26.9
07:55 1016 30 845 24.95 -3 26.5 99 -3.2 26.2
08:00 1016 30 845 24.95 -3.2 26.2 100 -3.3 26.1
08:05 1016 30 846 24.98 -3.1 26.4 99 -3.2 26.2
08:10 1016 30 846 24.98 -3 26.7 98 -3.2 26.3
08:15 1017 30.03 846 24.98 -3 26.5 98 -3.3 26.1
08:20 1017 30.03 846 24.98 -3.2 26.2 99 -3.4 25.9
08:25 1017 30.03 846 24.98 -3.3 26.1 100 -3.3 26
08:30 1017 30.03 846 24.98 -3 26.5 99 -3.1 26.4
08:35 1017 30.03 846 24.98 -2.6 27.3 99 -2.8 27
08:40 1017 30.03 846 24.98 -1.9 28.6 96 -2.5 27.5
08:45 1017 30.03 846 24.98 -1.5 29.4 94 -2.3 27.8
08:50 1017 30.03 846 24.98 -1.2 29.9 93 -2.2 28
08:55 1017 30.03 846 24.98 -0.7 30.7 88 -2.5 27.5
09:00 1017 30.03 846 24.98 -1 30.1 91 -2.4 27.7
09:05 1017 30.03 846 24.98 -1.9 28.6 95 -2.5 27.4
09:10 1017 30.03 846 24.98 -1.8 28.7 94 -2.6 27.3
09:15 1017 30.03 846 24.98 -2.6 27.4 97 -2.9 26.7
09:20 1017 30.03 846 24.98 -2.7 27.2 98 -3 26.6
09:25 1017 30.03 846 24.98 -2.5 27.5 97 -2.9 26.7
09:30 1017 30.03 846 24.98 -2.1 28.2 95 -2.8 27
09:35 1017 30.03 846 24.98 -1.2 29.8 91 -2.5 27.5
09:40 1017 30.03 846 24.98 0.3 32.5 85 -1.9 28.6
09:45 1017 30.03 846 24.98 0.8 33.4 82 -2 28.5
09:50 1017 30.03 846 24.98 -0.5 31.2 88 -2.2 28.1
09:55 1017 30.03 846 24.98 -0.6 31 86 -2.6 27.3
10:00 1017 30.03 846 24.98 -0.6 30.9 87 -2.5 27.5
10:05 1017 30.03 846 24.98 0.1 32.1 85 -2.2 28.1
10:10 1017 30.03 846 24.98 -0.7 30.7 87 -2.6 27.3
10:15 1017 30.03 846 24.98 -1.3 29.6 91 -2.5 27.4
10:20 1017 30.03 846 24.98 -0.9 30.3 88 -2.7 27.2
10:25 1017 30.03 846 24.98 -0.3 31.5 85 -2.5 27.5
10:30 1017 30.03 846 24.98 0.9 33.5 80 -2.2 28
10:35 1017 30.03 846 24.98 1.5 34.8 79 -1.8 28.8
10:40 1017 30.03 846 24.98 1.6 34.9 78 -1.8 28.8
10:45 1017 30.03 846 24.98 2.6 36.7 71 -2.2 28.1
10:50 1017 30.03 846 24.98 2.8 37.1 72 -1.7 29
10:55 1017 30.03 846 24.98 3.9 39.1 66 -1.8 28.8
11:00 1017 30.03 846 24.98 3.9 39 65 -2 28.4
11:05 1017 30.03 846 24.98 4.7 40.4 63 -1.7 28.9
11:10 1017 30.03 846 24.98 4.7 40.5 62 -1.8 28.7
11:15 1017 30.03 846 24.98 5 41 62 -1.7 29
11:20 1017 30.03 846 24.98 4.6 40.2 66 -1.2 29.9
11:25 1017 30.03 846 24.98 4.2 39.6 65 -1.8 28.7
11:30 1017 30.03 847 25.01 3.3 38 66 -2.3 27.8
11:35 1017 30.03 847 25.01 3.6 38.4 62 -3 26.5
11:40 1017 30.03 846 24.98 3.1 37.5 67 -2.5 27.5
11:45 1017 30.03 846 24.98 3.6 38.4 63 -2.7 27.1
11:50 1017 30.03 846 24.98 4 39.1 61 -2.8 27
11:55 1017 30.03 846 24.98 3.7 38.6 62 -2.9 26.8
12:00 1017 30.03 846 24.98 3.7 38.7 63 -2.7 27.1
12:05 1017 30.03 846 24.98 4.6 40.2 62 -2.2 28.1
12:10 1017 30.03 846 24.98 3.7 38.6 64 -2.6 27.3
12:15 1017 30.03 846 24.98 3.9 39 59 -3.5 25.8
12:20 1017 30.03 846 24.98 3.6 38.4 62 -3 26.7
12:25 1017 30.03 846 24.98 4.5 40 57 -3.3 26
12:30 1017 30.03 846 24.98 5.2 41.4 52 -4 24.9
12:35 1017 30.03 846 24.98 4.4 39.9 58 -3.2 26.2
12:40 1017 30.03 846 24.98 5.4 41.7 52 -3.7 25.3
12:45 1017 30.03 846 24.98 6 42.7 53 -2.9 26.8
12:50 1017 30.03 846 24.98 6 42.8 53 -3 26.7
12:55 1017 30.03 846 24.98 5.5 42 54 -2.9 26.7
13:00 1017 30.03 846 24.98 5.6 42.1 54 -3 26.5
13:05 1017 30.03 846 24.98 5.3 41.5 53 -3.6 25.6
13:10 1017 30.03 846 24.98 5.1 41.2 53 -3.8 25.2
13:15 1017 30.03 846 24.98 5.2 41.4 52 -3.7 25.3
13:20 1017 30.03 846 24.98 5.2 41.4 52 -3.8 25.1
13:25 1017 30.03 846 24.98 5.4 41.7 53 -3.5 25.6
13:30 1017 30.03 846 24.98 5.9 42.5 50 -3.6 25.5
13:35 1017 30.03 846 24.98 5.7 42.2 52 -3.5 25.8
13:40 1017 30.03 846 24.98 6.3 43.3 47 -4.2 24.4
13:45 1017 30.03 846 24.98 6.2 43.2 49 -3.7 25.3
13:50 1017 30.03 846 24.98 5.8 42.4 50 -3.8 25.2
13:55 1017 30.03 846 24.98 6.1 43.1 51 -3.3 26
14:00 1017 30.03 846 24.98 6 42.8 51 -3.4 25.9
14:05 1017 30.03 846 24.98 6.3 43.3 51 -3.1 26.3
14:10 1017 30.03 846 24.98 6.5 43.7 47 -3.9 24.9
14:15 1017 30.03 846 24.98 6 42.7 52 -3.1 26.4
14:20 1017 30.03 846 24.98 5.6 42 51 -3.7 25.4
14:25 1017 30.03 846 24.98 5.5 41.9 53 -3.4 25.9
14:30 1016 30 846 24.98 5.1 41.1 53 -3.7 25.4
14:35 1016 30 846 24.98 5.3 41.5 53 -3.6 25.5
14:40 1016 30 846 24.98 5.5 42 51 -3.9 25
14:45 1016 30 846 24.98 5.8 42.4 49 -4 24.7
14:50 1016 30 846 24.98 5.8 42.5 48 -4.4 24
14:55 1016 30 846 24.98 6.6 43.9 47 -3.9 25.1
15:00 1016 30 846 24.98 6.3 43.3 47 -4.3 24.2
15:05 1016 30 846 24.98 6.2 43.2 48 -4 24.8
15:10 1016 30 846 24.98 6.6 43.8 47 -4.1 24.7
15:15 1017 30.03 846 24.98 6.8 44.2 46 -3.9 25
15:20 1017 30.03 846 24.98 5.8 42.5 48 -4.3 24.3
15:25 1017 30.03 846 24.98 6.4 43.5 48 -3.9 25
15:30 1017 30.03 846 24.98 6.4 43.5 48 -3.9 25
15:35 1017 30.03 846 24.98 5.8 42.5 49 -3.9 24.9
15:40 1017 30.03 846 24.98 5.2 41.4 49 -4.5 23.8
15:45 1017 30.03 846 24.98 6.1 43 45 -4.8 23.3
15:50 1017 30.03 846 24.98 6.5 43.6 44 -4.9 23.2
15:55 1017 30.03 846 24.98 6.7 44 42 -5.2 22.6
16:00 1017 30.03 846 24.98 6.5 43.8 43 -5 23
16:05 1017 30.03 846 24.98 6.5 43.7 45 -4.7 23.5
16:10 1017 30.03 846 24.98 6.2 43.2 44 -5 23
16:15 1017 30.03 846 24.98 5.7 42.3 46 -5.1 22.8
16:20 1017 30.03 846 24.98 5.2 41.4 48 -5 23.1
16:25 1017 30.03 846 24.98 5.7 42.3 44 -5.5 22.1
16:30 1017 30.03 846 24.98 7 44.5 41 -5.4 22.2
16:35 1017 30.03 846 24.98 7 44.7 43 -4.7 23.6
16:40 1017 30.03 846 24.98 7.1 44.8 42 -5 23
16:45 1017 30.03 846 24.98 7 44.6 42 -5.1 22.8
16:50 1017 30.03 846 24.98 6.8 44.2 41 -5.4 22.3
16:55 1017 30.03 846 24.98 6.8 44.3 40 -5.9 21.4
17:00 1017 30.03 846 24.98 6.9 44.4 41 -5.3 22.4
17:05 1017 30.03 846 24.98 6.9 44.3 44 -4.4 24.1
17:10 1017 30.03 846 24.98 6.7 44.1 45 -4.4 24.2
17:15 1017 30.03 846 24.98 6.6 43.9 44 -4.8 23.4
17:20 1017 30.03 846 24.98 6.4 43.6 45 -4.5 23.8
17:25 1017 30.03 846 24.98 5.9 42.7 45 -5 23
17:30 1017 30.03 846 24.98 5.9 42.6 45 -5.1 22.7
17:35 1017 30.03 846 24.98 5.9 42.7 44 -5.3 22.4
17:40 1017 30.03 846 24.98 5.9 42.6 44 -5.5 22.2
17:45 1017 30.03 846 24.98 5.5 41.9 45 -5.5 22.2
17:50 1017 30.03 846 24.98 5 41 47 -5.3 22.5
17:55 1017 30.03 846 24.98 4.6 40.4 48 -5.4 22.3
18:00 1017 30.03 846 24.98 4.5 40 50 -5 23
18:05 1017 30.03 846 24.98 4.3 39.8 50 -5.1 22.9
18:10 1017 30.03 846 24.98 3.8 38.9 57 -3.8 25.2
18:15 1017 30.03 846 24.98 2.7 36.9 63 -3.7 25.4
18:20 1017 30.03 846 24.98 2.1 35.8 65 -3.7 25.4
18:25 1017 30.03 846 24.98 2.3 36.1 65 -3.7 25.3
18:30 1017 30.03 846 24.98 2 35.7 66 -3.6 25.6
18:35 1017 30.03 846 24.98 1.6 34.8 68 -3.8 25.2
18:40 1017 30.03 846 24.98 1.6 35 67 -3.9 25
18:45 1017 30.03 847 25.01 1.7 35 68 -3.7 25.4
18:50 1017 30.03 847 25.01 1 33.9 70 -3.8 25.1
18:55 1017 30.03 847 25.01 0.5 33 73 -3.8 25.2
19:00 1017 30.03 847 25.01 0.2 32.3 72 -4.3 24.2
19:05 1018 30.06 847 25.01 0.5 32.9 68 -4.6 23.6
19:10 1018 30.06 847 25.01 0.5 32.9 69 -4.5 23.9
19:15 1018 30.06 847 25.01 0.6 33 69 -4.6 23.8
19:20 1018 30.06 847 25.01 0.6 33.1 68 -4.6 23.7
19:25 1018 30.06 847 25.01 0.2 32.4 69 -4.9 23.2
19:30 1018 30.06 847 25.01 0.1 32.2 68 -5.1 22.8
19:35 1018 30.06 847 25.01 0.1 32.1 68 -5.2 22.6
19:40 1018 30.06 847 25.01 0 32 68 -5.1 22.8
19:45 1018 30.06 847 25.01 -0.3 31.5 70 -5.2 22.7
19:50 1018 30.06 847 25.01 -0.5 31.1 71 -5.1 22.9
19:55 1018 30.06 847 25.01 -0.5 31.1 72 -4.9 23.2
20:00 1018 30.06 847 25.01 -0.5 31.1 71 -5.1 22.8
20:05 1018 30.06 847 25.01 -0.5 31 70 -5.3 22.5
20:10 1018 30.06 847 25.01 -0.5 31.1 70 -5.4 22.3
20:15 1018 30.06 847 25.01 -0.5 31 70 -5.4 22.3
20:20 1018 30.06 847 25.01 -0.6 30.9 69 -5.5 22
20:25 1018 30.06 848 25.04 -0.6 30.9 68 -5.7 21.7
20:30 1018 30.06 848 25.04 -0.7 30.8 69 -5.7 21.7
20:35 1018 30.06 848 25.04 -0.7 30.7 69 -5.8 21.6
20:40 1018 30.06 848 25.04 -0.8 30.6 68 -5.9 21.4
20:45 1018 30.06 848 25.04 -0.8 30.6 68 -5.9 21.3
20:50 1018 30.06 848 25.04 -0.9 30.4 70 -5.6 21.8
20:55 1019 30.09 848 25.04 -1 30.1 72 -5.5 22
21:00 1019 30.09 848 25.04 -1 30.2 70 -5.9 21.4
21:05 1019 30.09 848 25.04 -0.8 30.6 68 -5.9 21.3
21:10 1019 30.09 848 25.04 -0.6 30.9 66 -6.2 20.8
21:15 1019 30.09 848 25.04 -0.5 31.2 66 -6.1 21
21:20 1019 30.09 848 25.04 -0.5 31.1 65 -6.3 20.6
21:25 1019 30.09 848 25.04 -0.4 31.4 64 -6.4 20.5
21:30 1019 30.09 848 25.04 -0.5 31.1 64 -6.4 20.4
21:35 1019 30.09 848 25.04 -0.6 31 64 -6.6 20.2
21:40 1019 30.09 848 25.04 -0.4 31.3 64 -6.5 20.3
21:45 1019 30.09 848 25.04 -0.6 30.9 66 -6.1 21
21:50 1019 30.09 848 25.04 -0.9 30.4 71 -5.5 22.1
21:55 1019 30.09 848 25.04 -1.4 29.5 73 -5.6 21.9
22:00 1019 30.09 848 25.04 -1.6 29.1 75 -5.6 22
22:05 1019 30.09 848 25.04 -1.6 29.1 73 -5.8 21.6
22:10 1019 30.09 848 25.04 -1.6 29 71 -6.3 20.7
22:15 1019 30.09 848 25.04 -1.7 28.9 69 -6.7 20
22:20 1019 30.09 848 25.04 -1.9 28.6 68 -7 19.4
22:25 1019 30.09 848 25.04 -1.9 28.6 67 -7.2 19
22:30 1019 30.09 848 25.04 -1.9 28.6 64 -7.8 17.9
22:35 1019 30.09 848 25.04 -1.9 28.6 63 -7.9 17.8
22:40 1019 30.09 848 25.04 -2 28.4 63 -8.1 17.4
22:45 1019 30.09 848 25.04 -2 28.3 64 -7.9 17.8
22:50 1019 30.09 848 25.04 -2.3 27.8 65 -8.1 17.4
22:55 1019 30.09 848 25.04 -2.4 27.7 64 -8.4 16.9
23:00 1019 30.09 848 25.04 -2.2 28.1 62 -8.5 16.7
23:05 1019 30.09 848 25.04 -2.2 28 62 -8.6 16.5
23:10 1019 30.09 848 25.04 -2.4 27.7 63 -8.5 16.6
23:15 1019 30.09 848 25.04 -2.4 27.6 62 -8.8 16.2
23:20 1019 30.09 848 25.04 -2.6 27.4 62 -8.9 16
23:25 1019 30.09 848 25.04 -2.6 27.3 62 -9 15.8
23:30 1019 30.09 848 25.04 -2.6 27.3 62 -9 15.9
23:35 1019 30.09 848 25.04 -2.6 27.3 62 -8.9 16
23:40 1019 30.09 848 25.04 -2.8 27 64 -8.8 16.2
23:45 1019 30.09 848 25.04 -3 26.6 63 -9 15.8
23:50 1019 30.09 848 25.04 -2.9 26.8 63 -9 15.7
23:55 1019 30.09 848 25.04 -2.8 26.9 61 -9.3 15.3
24:00 1019 30.09 848 25.04 -2.8 26.9 62 -9.1 15.6